Time;durP1;ratioP1;P1;durP2;ratioP2;P2;SDS_P1;SDS_P2;PMS_P1;PMS_P2;Temp;Humidity;BMP_temperature;BMP_pressure;BME280_temperature;BME280_humidity;BME280_pressure;Samples;Min_cycle;Max_cycle;Signal;HPM_P1;HPM_P2
2022/07/28 00:00:24;;;;;;;2.40;0.93;;;16.80;83.90;;;;;;2129483;27;20093;-68
2022/07/28 00:01:25;;;;;;;1.83;1.00;;;16.80;83.30;;;;;;2128012;27;20019;-68
2022/07/28 00:02:26;;;;;;;2.35;1.00;;;16.80;84.20;;;;;;2129623;27;20534;-68
2022/07/28 00:03:26;;;;;;;6.35;1.42;;;16.80;84.50;;;;;;2129194;27;20026;-68
2022/07/28 00:04:27;;;;;;;5.18;1.17;;;16.80;85.90;;;;;;2127250;27;20094;-68
2022/07/28 00:05:28;;;;;;;3.55;1.15;;;16.80;85.30;;;;;;2129610;27;20156;-68
2022/07/28 00:06:28;;;;;;;1.60;1.30;;;16.80;85.00;;;;;;2127345;27;20027;-68
2022/07/28 00:07:29;;;;;;;3.25;0.95;;;16.80;85.80;;;;;;2127664;27;20029;-68
2022/07/28 00:08:29;;;;;;;3.42;1.17;;;16.80;86.20;;;;;;2130086;27;20462;-68
2022/07/28 00:09:30;;;;;;;7.22;1.10;;;16.80;85.90;;;;;;2127930;27;20091;-68
2022/07/28 00:10:31;;;;;;;3.47;1.25;;;16.80;85.20;;;;;;2127323;27;20023;-68
2022/07/28 00:11:31;;;;;;;2.47;0.95;;;16.80;85.80;;;;;;2128574;27;20042;-68
2022/07/28 00:12:32;;;;;;;2.40;1.10;;;16.80;86.60;;;;;;2130710;27;20382;-68
2022/07/28 00:13:33;;;;;;;5.57;1.85;;;16.70;86.70;;;;;;2120704;27;20117;-68
2022/07/28 00:14:34;;;;;;;1.77;1.20;;;16.80;86.70;;;;;;2118990;27;20023;-68
2022/07/28 00:15:34;;;;;;;4.03;1.05;;;16.70;87.10;;;;;;2126837;27;20122;-68
2022/07/28 00:16:35;;;;;;;4.53;1.30;;;16.70;87.50;;;;;;2126880;27;20054;-68
2022/07/28 00:17:36;;;;;;;1.48;0.88;;;16.70;87.80;;;;;;2127615;27;20467;-68
2022/07/28 00:18:36;;;;;;;1.23;0.82;;;16.70;87.80;;;;;;2129135;27;20027;-68
2022/07/28 00:19:37;;;;;;;2.33;1.10;;;16.70;87.00;;;;;;2128618;27;20030;-68
2022/07/28 00:20:38;;;;;;;1.10;0.90;;;16.70;86.30;;;;;;2129600;27;20050;-68
2022/07/28 00:21:38;;;;;;;2.50;1.20;;;16.70;86.10;;;;;;2125783;27;20054;-68
2022/07/28 00:22:43;;;;;;;2.35;1.20;;;16.70;87.30;;;;;;2129386;27;20033;-68
2022/07/28 00:23:44;;;;;;;4.32;1.25;;;16.70;87.00;;;;;;2127057;27;20022;-68
2022/07/28 00:24:45;;;;;;;2.35;1.02;;;16.70;87.20;;;;;;2127715;27;20552;-68
2022/07/28 00:25:45;;;;;;;4.03;1.00;;;16.70;88.20;;;;;;2125972;27;20031;-68
2022/07/28 00:26:46;;;;;;;1.77;0.90;;;16.60;89.50;;;;;;2118886;27;20050;-68
2022/07/28 00:27:47;;;;;;;5.43;1.05;;;16.60;89.70;;;;;;2120851;27;20016;-68
2022/07/28 00:28:47;;;;;;;1.10;1.00;;;16.60;89.30;;;;;;2127105;27;20034;-68
2022/07/28 00:29:48;;;;;;;2.17;1.20;;;16.60;88.80;;;;;;2124960;27;20103;-68
2022/07/28 00:30:49;;;;;;;2.15;1.27;;;16.60;89.00;;;;;;2128090;27;20016;-68
2022/07/28 00:31:49;;;;;;;3.50;1.20;;;16.60;89.10;;;;;;2126855;27;20378;-68
2022/07/28 00:32:50;;;;;;;2.42;0.90;;;16.60;90.10;;;;;;2127486;27;20113;-68
2022/07/28 00:33:51;;;;;;;2.58;1.10;;;16.60;90.00;;;;;;2126899;27;20023;-68
2022/07/28 00:34:51;;;;;;;1.30;0.80;;;16.60;89.70;;;;;;2128261;27;20052;-68
2022/07/28 00:35:52;;;;;;;2.10;1.10;;;16.60;89.30;;;;;;2128560;27;20018;-68
2022/07/28 00:36:53;;;;;;;1.45;0.82;;;16.60;89.40;;;;;;2126913;27;20023;-68
2022/07/28 00:37:53;;;;;;;5.38;1.10;;;16.60;89.80;;;;;;2127163;27;20030;-68
2022/07/28 00:38:54;;;;;;;3.58;0.98;;;16.60;90.30;;;;;;2129220;27;20103;-68
2022/07/28 00:39:55;;;;;;;2.38;1.20;;;16.60;90.60;;;;;;2128147;27;20015;-68
2022/07/28 00:41:10;;;;;;;6.90;1.23;;;16.60;90.60;;;;;;2125196;27;20019;-68
2022/07/28 00:42:11;;;;;;;2.45;1.00;;;16.60;90.70;;;;;;2127364;27;20482;-68
2022/07/28 00:43:12;;;;;;;2.25;0.82;;;16.50;90.80;;;;;;2126917;27;20363;-68
2022/07/28 00:44:13;;;;;;;5.43;1.15;;;16.60;89.70;;;;;;2128133;27;20431;-68
2022/07/28 00:45:13;;;;;;;1.45;0.80;;;16.50;90.20;;;;;;2127379;27;20548;-68
2022/07/28 00:46:16;;;;;;;2.53;0.93;;;16.60;90.40;;;;;;2127724;27;20478;-68
2022/07/28 00:47:18;;;;;;;4.70;1.10;;;16.50;90.70;;;;;;2124851;27;20026;-68
2022/07/28 00:48:19;;;;;;;5.07;1.40;;;16.50;90.80;;;;;;2126099;27;20094;-68
2022/07/28 00:49:20;;;;;;;5.65;1.33;;;16.50;91.20;;;;;;2128506;27;20474;-68
2022/07/28 00:50:20;;;;;;;3.85;1.27;;;16.50;91.30;;;;;;2125111;27;20031;-68
2022/07/28 00:51:24;;;;;;;2.17;1.05;;;16.50;91.70;;;;;;2127376;27;20029;-68
2022/07/28 00:52:25;;;;;;;2.75;0.93;;;16.50;91.90;;;;;;2125676;27;20022;-68
2022/07/28 00:53:26;;;;;;;3.83;1.13;;;16.50;91.70;;;;;;2128021;27;20019;-68
2022/07/28 00:54:26;;;;;;;2.40;1.20;;;16.50;91.90;;;;;;2127128;27;20098;-68
2022/07/28 00:55:27;;;;;;;2.38;1.30;;;16.50;92.20;;;;;;2126150;27;20080;-68
2022/07/28 00:56:28;;;;;;;3.05;1.10;;;16.40;91.90;;;;;;2125545;27;20098;-68
2022/07/28 00:57:28;;;;;;;1.95;0.93;;;16.50;91.90;;;;;;2125808;27;20076;-68
2022/07/28 00:58:29;;;;;;;2.97;0.90;;;16.50;92.30;;;;;;2128787;27;20037;-68
2022/07/28 00:59:30;;;;;;;2.33;1.00;;;16.50;92.10;;;;;;2127386;27;20113;-68
2022/07/28 01:00:30;;;;;;;3.00;0.98;;;16.50;92.60;;;;;;2125193;27;20019;-68
2022/07/28 01:01:31;;;;;;;1.70;1.00;;;16.40;91.60;;;;;;2128028;27;20113;-68
2022/07/28 01:02:31;;;;;;;3.42;1.17;;;16.40;92.00;;;;;;2117914;27;20028;-68
2022/07/28 01:03:34;;;;;;;2.45;1.05;;;16.40;92.20;;;;;;2120398;27;20545;-68
2022/07/28 01:04:35;;;;;;;2.83;1.20;;;16.40;92.60;;;;;;2128961;27;20031;-68
2022/07/28 01:05:51;;;;;;;1.70;1.05;;;16.40;92.70;;;;;;2127746;27;20023;-68
2022/07/28 01:07:15;;;;;;;3.25;1.05;;;16.40;92.80;;;;;;2128228;27;20034;-68
2022/07/28 01:08:26;;;;;;;4.90;1.20;;;16.40;92.40;;;;;;2125959;27;20019;-68
2022/07/28 01:09:51;;;;;;;3.90;1.42;;;16.30;93.50;;;;;;2127931;27;20466;-68
2022/07/28 01:11:16;;;;;;;3.63;1.15;;;16.40;92.90;;;;;;2127796;27;20462;-68
2022/07/28 01:12:36;;;;;;;1.65;0.90;;;16.40;93.70;;;;;;2128161;27;20018;-68
2022/07/28 01:14:00;;;;;;;2.83;1.35;;;16.30;92.90;;;;;;2126045;27;20558;-68
2022/07/28 01:15:11;;;;;;;3.47;1.13;;;16.30;94.70;;;;;;2127095;27;20054;-68
2022/07/28 01:16:12;;;;;;;3.85;1.42;;;16.30;93.30;;;;;;2126121;27;20612;-68
2022/07/28 01:17:36;;;;;;;2.38;0.95;;;16.30;93.60;;;;;;2127409;27;20387;-68
2022/07/28 01:18:56;;;;;;;4.50;1.17;;;16.20;94.40;;;;;;2129170;27;20030;-68
2022/07/28 01:20:19;;;;;;;3.65;1.10;;;16.20;94.10;;;;;;2123039;27;20007;-68
2022/07/28 01:21:24;;;;;;;3.63;0.90;;;16.20;94.10;;;;;;2124280;27;20026;-68
2022/07/28 01:22:30;;;;;;;3.75;1.40;;;16.20;94.30;;;;;;2126575;27;20034;-68
2022/07/28 01:23:30;;;;;;;3.40;1.00;;;16.20;94.30;;;;;;2129373;27;20058;-68
2022/07/28 01:24:55;;;;;;;2.72;1.05;;;16.20;93.70;;;;;;2125438;27;20030;-68
2022/07/28 01:26:34;;;;;;;4.78;1.10;;;16.20;95.20;;;;;;2124626;27;20019;-68
2022/07/28 01:27:43;;;;;;;3.35;0.93;;;16.20;95.20;;;;;;2127133;27;20060;-68
2022/07/28 01:29:02;;;;;;;2.25;1.20;;;16.20;94.40;;;;;;2119185;27;20016;-68
2022/07/28 01:30:06;;;;;;;2.38;1.08;;;16.20;94.60;;;;;;2120849;27;20030;-69
2022/07/28 01:31:09;;;;;;;3.40;1.20;;;16.20;93.80;;;;;;2125740;27;20101;-69
2022/07/28 01:32:42;;;;;;;4.03;1.40;;;16.20;93.60;;;;;;2125747;27;20501;-68
2022/07/28 01:33:59;;;;;;;3.08;1.27;;;16.20;95.00;;;;;;2125293;27;20109;-68
2022/07/28 01:35:15;;;;;;;4.32;1.40;;;16.20;95.70;;;;;;2127256;27;20097;-68
2022/07/28 01:36:19;;;;;;;2.58;1.27;;;16.20;95.70;;;;;;2126934;27;20019;-68
2022/07/28 01:37:25;;;;;;;3.30;1.40;;;16.10;96.30;;;;;;2127513;27;20094;-68
2022/07/28 01:38:27;;;;;;;4.65;1.10;;;16.20;96.70;;;;;;2126119;27;20102;-68
2022/07/28 01:39:32;;;;;;;3.20;1.13;;;16.10;96.60;;;;;;2125887;27;20034;-68
2022/07/28 01:40:35;;;;;;;3.13;1.17;;;16.10;96.70;;;;;;2125764;27;20513;-68
2022/07/28 01:41:38;;;;;;;1.73;1.05;;;16.10;95.80;;;;;;2124388;27;20034;-68
2022/07/28 01:42:43;;;;;;;2.83;1.40;;;16.10;96.40;;;;;;2129594;27;20038;-68
2022/07/28 01:43:50;;;;;;;3.10;1.33;;;16.10;96.50;;;;;;2128327;27;20098;-68
2022/07/28 01:44:54;;;;;;;3.35;1.40;;;16.10;97.00;;;;;;2128980;27;20015;-68
2022/07/28 01:45:57;;;;;;;3.85;1.20;;;16.10;96.40;;;;;;2127503;27;20046;-68
2022/07/28 01:46:59;;;;;;;2.70;1.13;;;16.10;96.20;;;;;;2123058;27;20023;-68
2022/07/28 01:48:02;;;;;;;2.90;1.33;;;16.10;95.60;;;;;;2123590;27;20027;-68
2022/07/28 01:49:03;;;;;;;4.70;1.30;;;16.10;96.20;;;;;;2127206;27;20156;-68
2022/07/28 01:50:07;;;;;;;3.13;1.50;;;16.10;96.20;;;;;;2125209;27;20037;-69
2022/07/28 01:51:08;;;;;;;1.52;1.10;;;16.00;96.60;;;;;;2128469;27;20343;-69
2022/07/28 01:52:09;;;;;;;2.58;1.08;;;16.10;97.10;;;;;;2128777;27;20023;-69
2022/07/28 01:53:12;;;;;;;3.22;0.95;;;16.00;97.00;;;;;;2126788;27;20023;-68
2022/07/28 01:54:13;;;;;;;4.03;1.40;;;16.10;97.50;;;;;;2127606;27;20481;-68
2022/07/28 01:55:17;;;;;;;2.72;1.17;;;16.00;97.90;;;;;;2118287;27;20588;-68
2022/07/28 01:56:20;;;;;;;3.28;1.30;;;16.00;97.30;;;;;;2119691;27;20124;-68
2022/07/28 01:57:22;;;;;;;4.13;1.60;;;16.00;97.80;;;;;;2123001;27;20054;-68
2022/07/28 01:58:25;;;;;;;2.13;1.42;;;16.00;97.90;;;;;;2125706;27;20031;-68
2022/07/28 01:59:29;;;;;;;4.25;1.48;;;16.00;97.20;;;;;;2123950;27;20382;-68
2022/07/28 02:00:31;;;;;;;3.80;1.23;;;16.00;97.30;;;;;;2128614;27;20083;-68
2022/07/28 02:01:37;;;;;;;2.40;1.40;;;16.00;96.70;;;;;;2129431;27;20494;-68
2022/07/28 02:02:41;;;;;;;4.40;1.50;;;16.00;97.70;;;;;;2127554;27;20079;-68
2022/07/28 02:03:43;;;;;;;2.15;1.20;;;16.00;97.80;;;;;;2128780;27;20033;-68
2022/07/28 02:04:46;;;;;;;2.75;1.13;;;16.00;97.30;;;;;;2127939;27;20065;-68
2022/07/28 02:05:49;;;;;;;2.28;0.93;;;16.00;97.00;;;;;;2123345;27;20019;-68
2022/07/28 02:06:51;;;;;;;5.32;1.27;;;16.00;96.80;;;;;;2124082;27;20015;-68
2022/07/28 02:07:54;;;;;;;2.65;1.30;;;16.00;97.40;;;;;;2129565;27;20019;-68
2022/07/28 02:08:56;;;;;;;4.60;1.50;;;16.00;97.50;;;;;;2130985;27;20063;-68
2022/07/28 02:09:59;;;;;;;3.42;1.60;;;16.00;98.00;;;;;;2123993;27;20538;-68
2022/07/28 02:12:20;;;;;;;2.78;1.50;;;16.00;98.20;;;;;;2130350;27;20018;-68
2022/07/28 02:13:20;;;;;;;6.13;1.90;;;16.00;97.80;;;;;;2128840;27;20022;-68
2022/07/28 02:14:23;;;;;;;2.30;1.23;;;16.00;98.70;;;;;;2126804;27;20022;-68
2022/07/28 02:15:26;;;;;;;3.50;1.20;;;16.00;98.50;;;;;;2127575;27;20474;-68
2022/07/28 02:16:29;;;;;;;4.15;1.27;;;16.00;98.20;;;;;;2124679;27;20023;-68
2022/07/28 02:17:32;;;;;;;3.90;1.25;;;16.00;97.40;;;;;;2128286;27;20019;-68
2022/07/28 02:18:35;;;;;;;3.25;1.13;;;16.00;98.40;;;;;;2126896;27;20022;-68
2022/07/28 02:19:37;;;;;;;3.97;1.52;;;16.00;97.50;;;;;;2128923;27;20014;-68
2022/07/28 02:20:38;;;;;;;4.45;1.80;;;15.90;97.40;;;;;;2124877;27;20100;-68
2022/07/28 02:21:41;;;;;;;2.85;1.42;;;16.00;97.80;;;;;;2124926;27;20026;-68
2022/07/28 02:22:43;;;;;;;9.20;1.73;;;16.00;98.20;;;;;;2130219;27;20031;-68
2022/07/28 02:23:47;;;;;;;3.85;1.52;;;15.90;98.80;;;;;;2130424;27;20022;-68
2022/07/28 02:24:48;;;;;;;1.20;1.10;;;15.90;98.50;;;;;;2127968;27;20034;-68
2022/07/28 02:25:51;;;;;;;4.88;1.60;;;15.90;97.90;;;;;;2127577;27;20023;-68
2022/07/28 02:27:02;;;;;;;5.22;1.40;;;15.90;98.10;;;;;;2127899;27;20014;-68
2022/07/28 02:28:05;;;;;;;2.50;1.00;;;15.90;98.10;;;;;;2129146;27;20038;-68
2022/07/28 02:29:09;;;;;;;3.45;1.27;;;15.90;97.50;;;;;;2128767;27;20498;-68
2022/07/28 02:30:42;;;;;;;3.33;1.40;;;15.90;97.10;;;;;;2126309;27;20019;-68
2022/07/28 02:32:07;;;;;;;3.88;1.30;;;15.80;98.20;;;;;;2103961;27;20027;-68
2022/07/28 02:33:13;;;;;;;3.22;1.52;;;15.80;98.10;;;;;;2127227;27;20110;-68
2022/07/28 02:34:15;;;;;;;2.75;1.20;;;15.80;98.40;;;;;;2131782;27;20015;-68
2022/07/28 02:35:15;;;;;;;3.38;1.60;;;15.80;97.70;;;;;;2129474;27;20015;-68
2022/07/28 02:36:27;;;;;;;1.70;1.30;;;15.80;97.80;;;;;;2128063;27;20050;-68
2022/07/28 02:37:35;;;;;;;3.40;1.40;;;15.80;97.90;;;;;;2128814;27;20011;-68
2022/07/28 02:38:40;;;;;;;3.15;1.60;;;15.80;98.70;;;;;;2121739;27;20020;-68
2022/07/28 02:40:01;;;;;;;5.45;1.70;;;15.70;99.40;;;;;;2121496;27;20084;-68
2022/07/28 02:41:12;;;;;;;2.88;1.40;;;15.70;99.50;;;;;;2128945;27;20026;-68
2022/07/28 02:42:17;;;;;;;2.65;1.50;;;15.70;98.70;;;;;;2131477;27;20029;-68
2022/07/28 02:43:25;;;;;;;5.82;1.52;;;15.70;98.90;;;;;;2129530;27;20018;-68
2022/07/28 02:44:34;;;;;;;2.83;1.35;;;15.70;99.30;;;;;;2128169;27;20021;-68
2022/07/28 02:45:38;;;;;;;6.55;1.80;;;15.70;98.20;;;;;;2129497;27;20029;-68
2022/07/28 02:46:45;;;;;;;4.95;1.70;;;15.70;99.80;;;;;;2130938;27;20385;-68
2022/07/28 02:47:50;;;;;;;3.30;1.63;;;15.70;99.90;;;;;;2128680;27;20010;-68
2022/07/28 02:48:58;;;;;;;3.22;1.60;;;15.60;99.60;;;;;;2124629;27;20102;-68
2022/07/28 02:50:01;;;;;;;2.58;1.45;;;15.70;99.40;;;;;;2127840;27;20014;-68
2022/07/28 02:51:02;;;;;;;3.00;1.30;;;15.60;99.90;;;;;;2128948;27;20018;-68
2022/07/28 02:52:06;;;;;;;4.20;1.60;;;15.60;99.30;;;;;;2129392;27;20014;-68
2022/07/28 02:53:08;;;;;;;3.65;1.40;;;15.60;99.90;;;;;;2128065;27;20113;-69
2022/07/28 02:54:11;;;;;;;4.57;1.80;;;15.60;99.70;;;;;;2129288;27;20027;-68
2022/07/28 02:55:14;;;;;;;3.63;1.27;;;15.60;99.90;;;;;;2132313;27;20065;-68
2022/07/28 02:56:17;;;;;;;4.85;1.90;;;15.60;99.40;;;;;;2128095;27;20438;-68
2022/07/28 02:57:19;;;;;;;2.90;1.60;;;15.60;99.70;;;;;;2130224;27;20014;-68
2022/07/28 02:58:22;;;;;;;3.05;1.63;;;15.60;99.90;;;;;;2126026;27;20031;-68
2022/07/28 02:59:24;;;;;;;6.07;1.60;;;15.60;99.90;;;;;;2128216;27;20371;-68
2022/07/28 03:00:26;;;;;;;1.90;1.40;;;15.60;99.90;;;;;;2129665;27;20102;-68
2022/07/28 03:01:27;;;;;;;3.35;1.65;;;15.60;99.90;;;;;;2128393;27;20050;-68
2022/07/28 03:02:29;;;;;;;3.28;1.33;;;15.50;99.90;;;;;;2128255;27;20419;-68
2022/07/28 03:03:33;;;;;;;3.50;1.65;;;15.50;99.90;;;;;;2129900;27;20022;-68
2022/07/28 03:05:54;;;;;;;4.63;1.40;;;15.50;99.90;;;;;;2128124;27;20019;-68
2022/07/28 03:06:55;;;;;;;8.32;1.95;;;15.50;99.90;;;;;;2129716;27;20026;-68
2022/07/28 03:07:58;;;;;;;2.88;1.70;;;15.50;99.90;;;;;;2120740;27;20066;-68
2022/07/28 03:08:58;;;;;;;10.57;2.17;;;15.50;99.90;;;;;;2120429;27;20019;-68
2022/07/28 03:09:59;;;;;;;3.08;1.60;;;15.40;99.90;;;;;;2129294;27;20067;-68
2022/07/28 03:11:08;;;;;;;2.80;1.60;;;15.40;99.90;;;;;;2127302;27;20429;-68
2022/07/28 03:12:09;;;;;;;5.05;1.45;;;15.40;99.90;;;;;;2129102;27;20030;-68
2022/07/28 03:13:10;;;;;;;3.78;1.48;;;15.40;99.90;;;;;;2129110;27;20015;-68
2022/07/28 03:14:11;;;;;;;3.05;1.58;;;15.40;99.90;;;;;;2129498;27;20102;-68
2022/07/28 03:15:11;;;;;;;4.00;1.55;;;15.40;99.90;;;;;;2128695;27;20031;-68
2022/07/28 03:16:13;;;;;;;2.72;1.60;;;15.40;99.90;;;;;;2127281;27;20419;-68
2022/07/28 03:17:14;;;;;;;2.65;1.40;;;15.40;99.90;;;;;;2127489;27;20023;-68
2022/07/28 03:18:14;;;;;;;5.28;1.58;;;15.40;99.90;;;;;;2126748;27;20018;-68
2022/07/28 03:19:15;;;;;;;6.53;2.08;;;15.40;99.90;;;;;;2128469;27;20031;-69
2022/07/28 03:20:15;;;;;;;3.88;1.80;;;15.30;99.90;;;;;;2127735;27;20566;-69
2022/07/28 03:21:16;;;;;;;5.25;2.40;;;15.30;99.90;;;;;;2128663;27;20015;-68
2022/07/28 03:22:17;;;;;;;3.83;1.63;;;15.30;99.90;;;;;;2129354;27;20063;-68
2022/07/28 03:23:19;;;;;;;4.78;2.10;;;15.30;99.90;;;;;;2128653;27;20538;-68
2022/07/28 03:24:23;;;;;;;5.57;2.22;;;15.30;99.90;;;;;;2128206;27;20011;-68
2022/07/28 03:25:30;;;;;;;4.88;2.00;;;15.30;99.90;;;;;;2127700;27;20076;-68
2022/07/28 03:26:48;;;;;;;8.18;1.92;;;15.30;99.90;;;;;;2125734;27;20023;-68
2022/07/28 03:27:51;;;;;;;7.55;2.20;;;15.30;99.90;;;;;;2128015;27;20019;-68
2022/07/28 03:28:55;;;;;;;4.75;2.55;;;15.20;99.90;;;;;;2129550;27;20015;-69
2022/07/28 03:30:03;;;;;;;5.25;1.88;;;15.20;99.90;;;;;;2130614;27;20513;-68
2022/07/28 03:31:08;;;;;;;3.45;1.63;;;15.20;99.90;;;;;;2129655;27;20034;-68
2022/07/28 03:32:09;;;;;;;4.85;1.77;;;15.20;99.90;;;;;;2129420;27;20023;-68
2022/07/28 03:33:10;;;;;;;5.47;2.25;;;15.10;99.90;;;;;;2127135;27;20417;-68
2022/07/28 03:34:11;;;;;;;6.03;2.30;;;15.10;99.90;;;;;;2128101;27;20019;-68
2022/07/28 03:35:13;;;;;;;5.30;1.95;;;15.10;99.90;;;;;;2125901;27;20022;-68
2022/07/28 03:36:20;;;;;;;6.05;1.90;;;15.10;99.90;;;;;;2129541;27;20015;-68
2022/07/28 03:37:38;;;;;;;2.67;1.63;;;15.10;99.90;;;;;;2128555;27;20072;-68
2022/07/28 03:38:47;;;;;;;7.40;1.98;;;15.10;99.90;;;;;;2127138;27;20051;-68
2022/07/28 03:39:50;;;;;;;3.72;1.90;;;15.10;99.90;;;;;;2126428;27;20015;-68
2022/07/28 03:40:53;;;;;;;6.40;1.88;;;15.00;99.90;;;;;;2126072;27;20404;-68
2022/07/28 03:41:57;;;;;;;4.93;2.17;;;15.10;99.90;;;;;;2127456;27;20023;-68
2022/07/28 03:43:05;;;;;;;4.50;2.20;;;15.00;99.90;;;;;;2122089;27;20023;-68
2022/07/28 03:44:07;;;;;;;5.93;1.95;;;15.10;99.90;;;;;;2123453;27;20023;-68
2022/07/28 03:45:09;;;;;;;5.70;1.90;;;15.10;99.90;;;;;;2128668;27;20424;-68
2022/07/28 03:46:09;;;;;;;4.93;1.80;;;15.00;99.90;;;;;;2128752;27;20032;-68
2022/07/28 03:47:10;;;;;;;5.15;2.00;;;15.00;99.90;;;;;;2127578;27;20018;-68
2022/07/28 03:48:11;;;;;;;3.70;1.58;;;15.10;99.90;;;;;;2127565;27;20023;-68
2022/07/28 03:49:12;;;;;;;4.78;1.70;;;15.10;99.90;;;;;;2128164;27;20486;-68
2022/07/28 03:50:13;;;;;;;5.57;2.00;;;15.10;99.90;;;;;;2125450;27;20069;-68
2022/07/28 03:51:13;;;;;;;3.63;1.52;;;15.10;99.90;;;;;;2128474;27;20026;-68
2022/07/28 03:52:15;;;;;;;4.90;1.90;;;15.00;99.90;;;;;;2125667;27;20023;-68
2022/07/28 03:53:23;;;;;;;5.13;2.00;;;15.00;99.90;;;;;;2126845;27;20047;-68
2022/07/28 03:54:24;;;;;;;4.03;1.83;;;15.10;99.90;;;;;;2118529;27;20065;-68
2022/07/28 03:55:25;;;;;;;6.00;2.30;;;15.00;99.90;;;;;;2120653;27;20019;-68
2022/07/28 03:56:26;;;;;;;4.20;1.90;;;15.00;99.90;;;;;;2127460;27;20015;-68
2022/07/28 03:57:27;;;;;;;5.22;2.20;;;15.00;99.90;;;;;;2128597;27;20534;-68
2022/07/28 03:58:27;;;;;;;8.70;1.90;;;15.00;99.90;;;;;;2130172;27;20046;-68
2022/07/28 03:59:28;;;;;;;6.93;2.20;;;15.00;99.90;;;;;;2126338;27;20087;-68
2022/07/28 04:00:29;;;;;;;5.43;2.03;;;15.00;99.90;;;;;;2118888;27;20019;-68
2022/07/28 04:01:29;;;;;;;2.70;1.77;;;15.00;99.90;;;;;;2121069;27;20030;-68
2022/07/28 04:02:33;;;;;;;3.95;1.45;;;15.00;99.90;;;;;;2127956;27;20020;-68
2022/07/28 04:03:34;;;;;;;7.32;1.85;;;15.00;99.90;;;;;;2128177;27;20027;-68
2022/07/28 04:04:34;;;;;;;3.55;1.73;;;15.00;99.90;;;;;;2127121;27;20038;-68
2022/07/28 04:05:35;;;;;;;4.90;1.92;;;15.00;99.90;;;;;;2127689;27;20015;-68
2022/07/28 04:06:35;;;;;;;5.18;1.85;;;15.00;99.90;;;;;;2128834;27;20027;-68
2022/07/28 04:07:36;;;;;;;3.63;1.65;;;15.00;99.90;;;;;;2128126;27;20398;-68
2022/07/28 04:08:37;;;;;;;9.05;2.00;;;14.90;99.90;;;;;;2126632;27;20608;-68
2022/07/28 04:09:37;;;;;;;3.15;1.98;;;15.00;99.90;;;;;;2127164;27;20027;-68
2022/07/28 04:10:38;;;;;;;4.10;1.90;;;15.00;99.90;;;;;;2127605;27;20023;-68
2022/07/28 04:11:39;;;;;;;3.85;1.98;;;15.00;99.90;;;;;;2128723;27;20023;-68
2022/07/28 04:12:58;;;;;;;6.68;2.05;;;14.90;99.90;;;;;;2128787;27;20030;-68
2022/07/28 04:13:58;;;;;;;4.07;2.03;;;14.90;99.90;;;;;;2126010;27;20026;-68
2022/07/28 04:14:59;;;;;;;4.15;1.67;;;14.90;99.90;;;;;;2126521;27;20019;-68
2022/07/28 04:16:00;;;;;;;6.03;1.90;;;14.90;99.90;;;;;;2126964;27;20037;-68
2022/07/28 04:17:01;;;;;;;3.75;1.90;;;14.90;99.90;;;;;;2126024;27;20023;-68
2022/07/28 04:18:01;;;;;;;4.20;1.90;;;14.90;99.90;;;;;;2128847;27;20029;-68
2022/07/28 04:19:02;;;;;;;3.10;1.60;;;14.90;99.90;;;;;;2127325;27;20474;-68
2022/07/28 04:20:03;;;;;;;4.90;1.75;;;14.90;99.90;;;;;;2128148;27;20029;-68
2022/07/28 04:21:04;;;;;;;4.00;2.10;;;14.90;99.90;;;;;;2127507;27;20109;-68
2022/07/28 04:22:04;;;;;;;4.13;1.60;;;14.90;99.90;;;;;;2128063;27;20488;-68
2022/07/28 04:23:05;;;;;;;6.60;2.13;;;14.80;99.90;;;;;;2125062;27;20014;-68
2022/07/28 04:24:09;;;;;;;5.75;1.95;;;14.90;99.90;;;;;;2128624;27;20019;-68
2022/07/28 04:25:13;;;;;;;4.97;2.00;;;14.90;99.90;;;;;;2126454;27;20023;-68
2022/07/28 04:26:14;;;;;;;5.18;2.28;;;14.90;99.90;;;;;;2129186;27;20019;-68
2022/07/28 04:27:15;;;;;;;3.35;1.75;;;14.80;99.90;;;;;;2127470;27;20034;-68
2022/07/28 04:28:15;;;;;;;5.47;1.80;;;14.90;99.90;;;;;;2128793;27;20623;-68
2022/07/28 04:29:16;;;;;;;7.75;1.83;;;14.90;99.90;;;;;;2128103;27;20011;-68
2022/07/28 04:30:20;;;;;;;2.35;1.50;;;14.90;99.90;;;;;;2127866;27;20071;-68
2022/07/28 04:31:20;;;;;;;4.45;1.88;;;14.80;99.90;;;;;;2128723;27;20015;-68
2022/07/28 04:32:21;;;;;;;5.93;2.08;;;14.90;99.90;;;;;;2126674;27;20020;-68
2022/07/28 04:33:21;;;;;;;7.28;2.53;;;14.90;99.90;;;;;;2121457;27;20068;-68
2022/07/28 04:34:22;;;;;;;9.30;2.20;;;14.90;99.90;;;;;;2122045;27;20087;-68
2022/07/28 04:35:23;;;;;;;4.70;1.88;;;14.90;99.90;;;;;;2126638;27;20026;-68
2022/07/28 04:36:24;;;;;;;5.88;2.03;;;14.90;99.90;;;;;;2126700;27;20018;-68
2022/07/28 04:37:26;;;;;;;8.70;2.00;;;14.90;99.90;;;;;;2126856;27;20026;-68
2022/07/28 04:38:27;;;;;;;4.35;1.77;;;14.90;99.90;;;;;;2125638;27;20015;-68
2022/07/28 04:39:28;;;;;;;7.75;2.10;;;14.90;99.90;;;;;;2128450;27;20076;-68
2022/07/28 04:40:29;;;;;;;3.80;1.70;;;14.90;99.90;;;;;;2127703;27;20110;-68
2022/07/28 04:41:29;;;;;;;9.02;2.38;;;14.90;99.90;;;;;;2126365;27;20352;-68
2022/07/28 04:42:30;;;;;;;3.63;1.80;;;14.90;99.90;;;;;;2131017;27;20075;-68
2022/07/28 04:43:30;;;;;;;4.28;1.98;;;14.90;99.90;;;;;;2126275;27;20083;-68
2022/07/28 04:44:32;;;;;;;6.82;2.15;;;15.00;99.90;;;;;;2120408;27;20522;-68
2022/07/28 04:45:33;;;;;;;8.18;2.05;;;15.00;99.90;;;;;;2122170;27;20027;-68
2022/07/28 04:46:34;;;;;;;5.43;1.67;;;15.10;99.90;;;;;;2125694;27;20117;-68
2022/07/28 04:47:35;;;;;;;5.22;1.80;;;15.10;99.90;;;;;;2128700;27;20391;-68
2022/07/28 04:48:36;;;;;;;6.55;2.47;;;15.20;99.90;;;;;;2124161;27;20102;-68
2022/07/28 04:49:37;;;;;;;3.80;1.90;;;15.20;99.90;;;;;;2128429;27;20030;-68
2022/07/28 04:50:41;;;;;;;4.60;1.75;;;15.20;99.90;;;;;;2116778;27;20062;-68
2022/07/28 04:51:44;;;;;;;3.97;1.70;;;15.30;99.90;;;;;;2121702;27;20023;-68
2022/07/28 04:52:48;;;;;;;5.30;1.83;;;15.30;99.90;;;;;;2129323;27;20470;-68
2022/07/28 04:53:48;;;;;;;5.65;1.88;;;15.40;99.90;;;;;;2129421;27;20549;-67
2022/07/28 04:54:49;;;;;;;6.40;2.15;;;15.40;99.90;;;;;;2124468;27;20104;-68
2022/07/28 04:55:50;;;;;;;4.40;1.70;;;15.40;99.90;;;;;;2126502;27;20562;-68
2022/07/28 04:56:51;;;;;;;5.95;1.85;;;15.50;99.90;;;;;;2126446;27;20068;-68
2022/07/28 04:57:52;;;;;;;3.80;2.00;;;15.50;99.90;;;;;;2127086;27;20098;-68
2022/07/28 04:58:52;;;;;;;7.13;2.75;;;15.60;99.90;;;;;;2128146;27;20021;-68
2022/07/28 04:59:53;;;;;;;6.72;1.90;;;15.60;99.90;;;;;;2131352;27;20023;-68
2022/07/28 05:00:54;;;;;;;6.20;1.90;;;15.60;99.90;;;;;;2129500;27;20487;-68
2022/07/28 05:01:56;;;;;;;4.22;1.40;;;15.60;99.90;;;;;;2129399;27;20427;-68
2022/07/28 05:02:57;;;;;;;4.05;1.67;;;15.60;99.90;;;;;;2126004;27;20019;-68
2022/07/28 05:03:57;;;;;;;4.78;2.20;;;15.70;99.90;;;;;;2125104;27;20089;-68
2022/07/28 05:04:58;;;;;;;6.13;2.28;;;15.70;99.90;;;;;;2129184;27;20034;-68
2022/07/28 05:05:59;;;;;;;8.35;2.65;;;15.70;99.90;;;;;;2125270;27;20050;-68
2022/07/28 05:06:59;;;;;;;5.03;2.00;;;15.70;99.90;;;;;;2129216;27;20019;-68
2022/07/28 05:08:00;;;;;;;5.55;2.22;;;15.70;99.90;;;;;;2127456;27;20063;-68
2022/07/28 05:09:01;;;;;;;3.65;1.88;;;15.70;99.90;;;;;;2124049;27;20097;-68
2022/07/28 05:10:02;;;;;;;3.90;2.03;;;15.70;99.90;;;;;;2126290;27;20038;-68
2022/07/28 05:11:03;;;;;;;3.45;1.83;;;15.70;99.90;;;;;;2126378;27;20030;-68
2022/07/28 05:12:05;;;;;;;3.53;2.03;;;15.70;99.90;;;;;;2125649;27;20785;-68
2022/07/28 05:13:06;;;;;;;3.55;2.10;;;15.70;99.90;;;;;;2126532;27;20766;-68
2022/07/28 05:14:07;;;;;;;8.82;1.98;;;15.70;99.90;;;;;;2126512;27;20408;-68
2022/07/28 05:15:08;;;;;;;3.53;2.13;;;15.70;99.90;;;;;;2128077;27;20546;-68
2022/07/28 05:16:09;;;;;;;7.05;2.22;;;15.70;99.90;;;;;;2129022;27;20019;-68
2022/07/28 05:17:09;;;;;;;6.68;2.38;;;15.70;99.90;;;;;;2129910;27;20018;-68
2022/07/28 05:18:10;;;;;;;5.93;2.33;;;15.70;99.90;;;;;;2127715;27;20016;-68
2022/07/28 05:19:11;;;;;;;4.82;1.90;;;15.70;99.90;;;;;;2129072;27;20673;-68
2022/07/28 05:20:12;;;;;;;5.97;2.20;;;15.70;99.90;;;;;;2127098;27;20019;-68
2022/07/28 05:21:13;;;;;;;3.67;1.60;;;15.70;99.90;;;;;;2125354;27;21292;-68
2022/07/28 05:22:13;;;;;;;4.95;1.98;;;15.70;99.90;;;;;;2127185;27;20435;-68
2022/07/28 05:23:16;;;;;;;8.23;2.80;;;15.70;99.90;;;;;;2127445;27;20535;-68
2022/07/28 05:24:16;;;;;;;5.65;1.77;;;15.80;99.90;;;;;;2128853;27;20019;-68
2022/07/28 05:25:22;;;;;;;4.90;2.10;;;15.80;99.90;;;;;;2125238;27;20038;-68
2022/07/28 05:26:23;;;;;;;4.60;2.08;;;15.80;99.90;;;;;;2126002;27;20022;-68
2022/07/28 05:27:24;;;;;;;3.60;1.80;;;15.90;99.90;;;;;;2128847;27;20027;-68
2022/07/28 05:28:24;;;;;;;4.28;1.85;;;15.90;99.90;;;;;;2126858;27;20023;-68
2022/07/28 05:29:25;;;;;;;10.35;2.30;;;16.00;99.90;;;;;;2127354;27;20038;-68
2022/07/28 05:30:26;;;;;;;5.57;1.90;;;16.10;99.90;;;;;;2128546;27;20029;-68
2022/07/28 05:31:26;;;;;;;7.55;1.92;;;16.20;99.90;;;;;;2129132;27;20466;-68
2022/07/28 05:32:27;;;;;;;7.75;2.33;;;16.20;99.90;;;;;;2129904;27;20019;-68
2022/07/28 05:33:27;;;;;;;4.72;1.75;;;16.30;99.90;;;;;;2126642;27;20030;-68